TAF PAFA
AMD PAFA 080325Z 0803/0906 26009KT 6SM -SN BR SCT005 BKN022 OVC050 TEMPO 0803/0805 1SM -SN BR OVC014 FM080700 00000KT P6SM VCSH OVC035=
METAR PAFA
WC PAFA
WS PAFA
WV PAFA